createdAt,value
2018-12-04T00:01:11.447Z,73.94
2018-12-04T00:03:39.231Z,73.85
2018-12-04T00:06:07.068Z,74.17
2018-12-04T00:08:34.820Z,74.53
2018-12-04T00:11:02.595Z,74.56
2018-12-04T00:13:30.466Z,74.77
2018-12-04T00:15:58.281Z,71.73
2018-12-04T00:18:26.131Z,71.86
2018-12-04T00:20:53.896Z,71.40
2018-12-04T00:23:21.689Z,70.96
2018-12-04T00:25:49.465Z,70.92
2018-12-04T00:28:17.236Z,71.47
2018-12-04T00:30:45.072Z,71.84
2018-12-04T00:33:12.872Z,72.25
2018-12-04T00:35:40.702Z,72.61
2018-12-04T00:38:08.502Z,72.40
2018-12-04T00:40:36.291Z,72.61
2018-12-04T00:43:04.117Z,72.74
2018-12-04T00:45:32.007Z,72.90
2018-12-04T00:47:59.793Z,72.84
2018-12-04T00:50:27.617Z,72.52
2018-12-04T00:52:55.437Z,73.39
2018-12-04T00:55:23.325Z,72.37
2018-12-04T00:57:51.122Z,71.91
2018-12-04T01:00:18.945Z,71.65
2018-12-04T01:02:46.798Z,71.45
2018-12-04T01:05:15.292Z,72.12
2018-12-04T01:07:43.067Z,72.58
2018-12-04T01:10:10.861Z,72.73
2018-12-04T01:12:38.751Z,72.55
2018-12-04T01:15:07.156Z,72.74
2018-12-04T01:17:34.938Z,72.38
2018-12-04T01:20:02.877Z,72.13
2018-12-04T01:22:31.178Z,72.17
2018-12-04T01:24:59.017Z,72.08
2018-12-04T01:27:26.838Z,72.06
2018-12-04T01:29:54.648Z,71.95
2018-12-04T01:32:22.455Z,72.38
2018-12-04T01:34:50.289Z,72.03
2018-12-04T01:37:18.242Z,71.28
2018-12-04T01:39:46.150Z,70.44
2018-12-04T01:42:14.032Z,70.81
2018-12-04T01:44:41.863Z,69.45
2018-12-04T01:47:09.680Z,68.56
2018-12-04T01:49:37.628Z,68.98
2018-12-04T01:52:05.467Z,69.79
2018-12-04T01:54:33.314Z,69.66
2018-12-04T01:57:01.161Z,69.85
2018-12-04T01:59:28.972Z,70.47
2018-12-04T02:01:56.853Z,71.18
2018-12-04T02:04:24.689Z,71.88
2018-12-04T02:06:52.505Z,71.68
2018-12-04T02:09:20.304Z,72.06
2018-12-04T02:11:48.126Z,72.07
2018-12-04T02:14:15.893Z,72.33
2018-12-04T02:16:43.985Z,72.18
2018-12-04T02:19:11.785Z,72.58
2018-12-04T02:21:39.523Z,72.36
2018-12-04T02:24:07.313Z,72.17
2018-12-04T02:26:35.169Z,68.23
2018-12-04T02:29:02.971Z,66.70
2018-12-04T02:31:30.747Z,65.17
2018-12-04T02:33:58.535Z,65.35
2018-12-04T02:36:26.293Z,66.36
2018-12-04T02:38:54.036Z,65.84
2018-12-04T02:41:21.823Z,66.03
2018-12-04T02:43:49.625Z,67.42
2018-12-04T02:46:17.427Z,68.14
2018-12-04T02:48:45.161Z,69.76
2018-12-04T02:51:12.937Z,70.31
2018-12-04T02:53:40.735Z,70.30
2018-12-04T02:56:08.507Z,69.94
2018-12-04T02:58:36.255Z,70.09
2018-12-04T03:01:04.044Z,70.69
2018-12-04T03:03:31.814Z,70.59
2018-12-04T03:05:59.669Z,69.64
2018-12-04T03:08:27.437Z,69.21
2018-12-04T03:10:55.252Z,69.44
2018-12-04T03:13:23.025Z,69.19
2018-12-04T03:15:50.845Z,69.21
2018-12-04T03:18:18.628Z,68.70
2018-12-04T03:20:46.401Z,68.73
2018-12-04T03:23:14.204Z,68.59
2018-12-04T03:25:41.959Z,68.48
2018-12-04T03:28:09.746Z,68.81
2018-12-04T03:30:37.648Z,69.16
2018-12-04T03:33:05.514Z,69.04
2018-12-04T03:35:33.334Z,69.26
2018-12-04T03:46:39.299Z,69.79
2018-12-04T03:49:37.073Z,69.85
2018-12-04T03:52:04.820Z,69.77
2018-12-04T03:54:32.593Z,70.15
2018-12-04T03:57:00.323Z,71.00
2018-12-04T03:59:28.106Z,70.28
2018-12-04T04:01:55.893Z,70.05
2018-12-04T04:04:23.749Z,69.95
2018-12-04T04:06:51.521Z,69.91
2018-12-04T04:09:19.256Z,69.20
2018-12-04T04:11:47.152Z,68.88
2018-12-04T04:14:14.984Z,68.40
2018-12-04T04:16:42.810Z,69.05
2018-12-04T04:19:10.661Z,69.17
2018-12-04T04:21:38.470Z,68.80
2018-12-04T04:24:06.286Z,68.77
2018-12-04T04:26:34.067Z,68.90
2018-12-04T04:29:01.825Z,69.02
2018-12-04T04:31:29.596Z,69.09
2018-12-04T04:33:57.329Z,69.44
2018-12-04T04:36:25.167Z,69.30
2018-12-04T04:38:52.920Z,69.67
2018-12-04T04:41:20.733Z,69.58
2018-12-04T04:43:48.556Z,69.24
2018-12-04T04:46:16.370Z,69.27
2018-12-04T04:48:44.094Z,69.21
2018-12-04T04:51:11.880Z,69.34
2018-12-04T04:53:39.708Z,69.37
2018-12-04T04:56:07.453Z,69.53
2018-12-04T04:58:35.298Z,69.60
2018-12-04T05:01:03.094Z,69.00
2018-12-04T05:03:30.924Z,68.51
2018-12-04T05:05:58.688Z,68.25
2018-12-04T05:08:26.427Z,68.77
2018-12-04T05:10:54.168Z,69.02
2018-12-04T05:13:21.970Z,69.63
2018-12-04T05:15:49.749Z,70.43
2018-12-04T05:18:17.486Z,73.55
2018-12-04T05:20:45.274Z,69.26
2018-12-04T05:23:13.017Z,67.35
2018-12-04T05:25:40.796Z,66.69
2018-12-04T05:28:08.545Z,66.21
2018-12-04T05:30:36.272Z,66.84
2018-12-04T05:33:04.009Z,65.99
2018-12-04T05:35:31.759Z,65.90
2018-12-04T05:37:59.455Z,66.15
2018-12-04T05:40:27.193Z,65.96
2018-12-04T05:42:54.978Z,66.01
2018-12-04T05:45:22.731Z,67.22
2018-12-04T05:47:50.514Z,67.26
2018-12-04T05:50:18.277Z,68.14
2018-12-04T05:52:56.078Z,69.74
2018-12-04T05:55:23.780Z,69.98
2018-12-04T05:57:51.553Z,70.26
2018-12-04T06:00:19.357Z,69.93
2018-12-04T06:02:47.065Z,70.17
2018-12-04T06:05:14.859Z,69.95
2018-12-04T06:07:42.568Z,69.45
2018-12-04T06:10:10.373Z,69.41
2018-12-04T06:12:38.760Z,69.18
2018-12-04T06:15:06.613Z,69.35
2018-12-04T06:17:34.372Z,69.28
2018-12-04T06:20:02.153Z,68.82
2018-12-04T06:22:29.878Z,68.68
2018-12-04T06:24:57.676Z,68.69
2018-12-04T06:27:25.401Z,68.82
2018-12-04T06:29:53.228Z,68.83
2018-12-04T06:32:21.010Z,68.16
2018-12-04T06:34:48.788Z,68.15
2018-12-04T06:37:16.560Z,68.30
2018-12-04T06:39:44.301Z,68.41
2018-12-04T06:42:12.034Z,68.42
2018-12-04T06:44:39.838Z,68.08
2018-12-04T06:47:07.570Z,68.13
2018-12-04T06:49:35.331Z,67.91
2018-12-04T06:52:03.128Z,68.07
2018-12-04T06:54:30.905Z,68.69
2018-12-04T06:56:58.655Z,68.79
2018-12-04T06:59:26.618Z,69.38
2018-12-04T07:01:54.401Z,69.88
2018-12-04T07:04:22.961Z,70.78
2018-12-04T07:06:50.720Z,70.58
2018-12-04T07:09:18.456Z,70.54
2018-12-04T07:11:46.255Z,71.91
2018-12-04T07:14:14.007Z,71.79
2018-12-04T07:16:41.786Z,71.77
2018-12-04T07:19:09.517Z,71.55
2018-12-04T07:21:37.432Z,70.19
2018-12-04T07:24:05.197Z,68.82
2018-12-04T07:26:32.949Z,68.39
2018-12-04T07:29:00.744Z,67.69
2018-12-04T07:31:28.555Z,66.72
2018-12-04T07:33:56.341Z,66.60
2018-12-04T07:36:24.129Z,66.67
2018-12-04T07:38:51.873Z,66.42
2018-12-04T07:41:19.773Z,66.26
2018-12-04T07:43:47.515Z,68.48
2018-12-04T07:46:15.330Z,70.06
2018-12-04T07:48:43.125Z,70.71
2018-12-04T07:51:11.069Z,70.24
2018-12-04T07:53:38.962Z,70.07
2018-12-04T07:56:06.801Z,69.83
2018-12-04T07:58:34.559Z,69.77
2018-12-04T08:01:02.333Z,69.89
2018-12-04T08:03:30.194Z,69.61
2018-12-04T08:06:00.039Z,69.29
2018-12-04T08:08:27.797Z,68.84
2018-12-04T08:10:55.572Z,68.82
2018-12-04T08:13:23.297Z,68.20
2018-12-04T08:15:51.024Z,68.27
2018-12-04T08:18:18.777Z,67.81
2018-12-04T08:20:46.533Z,67.95
2018-12-04T08:23:14.281Z,67.68
2018-12-04T08:25:42.000Z,67.42
2018-12-04T08:28:09.720Z,67.65
2018-12-04T08:30:37.472Z,68.38
2018-12-04T08:33:05.283Z,68.73
2018-12-04T08:35:33.063Z,68.41
2018-12-04T08:38:00.925Z,68.45
2018-12-04T08:40:28.731Z,68.51
2018-12-04T08:42:56.477Z,68.25
2018-12-04T08:45:24.224Z,67.62
2018-12-04T08:47:51.952Z,67.21
2018-12-04T08:50:19.827Z,67.41
2018-12-04T08:52:47.575Z,66.99
2018-12-04T08:55:15.341Z,67.33
2018-12-04T08:57:43.137Z,66.66
2018-12-04T09:00:10.951Z,67.06
2018-12-04T09:02:38.789Z,67.02
2018-12-04T09:05:07.569Z,66.93
2018-12-04T09:07:35.309Z,67.05
2018-12-04T09:10:03.566Z,66.95
2018-12-04T09:12:31.297Z,66.87
2018-12-04T09:14:59.048Z,67.26
2018-12-04T09:17:26.784Z,67.15
2018-12-04T09:19:54.537Z,67.97
2018-12-04T09:22:22.421Z,67.97
2018-12-04T09:24:50.265Z,68.20
2018-12-04T09:27:18.125Z,68.22
2018-12-04T09:29:45.972Z,68.47
2018-12-04T09:32:13.857Z,69.80
2018-12-04T09:34:41.663Z,68.28
2018-12-04T09:37:09.422Z,69.16
2018-12-04T09:39:37.229Z,69.55
2018-12-04T09:42:05.245Z,70.70
2018-12-04T09:44:33.016Z,70.25
2018-12-04T09:47:00.934Z,70.17
2018-12-04T09:49:28.695Z,70.12
2018-12-04T09:51:56.501Z,70.94
2018-12-04T09:54:24.327Z,70.87
2018-12-04T09:56:52.569Z,73.32
2018-12-04T09:59:20.340Z,72.91
2018-12-04T10:01:48.242Z,70.99
2018-12-04T10:04:16.049Z,70.88
2018-12-04T10:06:43.806Z,71.72
2018-12-04T10:09:11.634Z,71.75
2018-12-04T10:11:39.439Z,70.14
2018-12-04T10:14:07.378Z,70.06
2018-12-04T10:16:35.129Z,70.35
2018-12-04T10:19:02.934Z,70.23
2018-12-04T10:21:30.684Z,70.13
2018-12-04T10:23:58.459Z,69.23
2018-12-04T10:26:26.280Z,68.92
2018-12-04T10:28:54.037Z,69.54
2018-12-04T10:31:21.833Z,68.62
2018-12-04T10:33:49.567Z,69.12
2018-12-04T10:36:17.352Z,68.94
2018-12-04T10:38:45.208Z,68.58
2018-12-04T10:41:13.906Z,69.28
2018-12-04T10:43:41.695Z,68.97
2018-12-04T10:46:09.474Z,69.82
2018-12-04T10:48:37.265Z,69.16
2018-12-04T10:51:05.036Z,68.71
2018-12-04T10:53:32.830Z,69.30
2018-12-04T10:56:00.604Z,69.88
2018-12-04T10:58:28.470Z,69.41
2018-12-04T11:00:58.221Z,70.54
2018-12-04T11:03:31.750Z,68.88
2018-12-04T11:05:59.537Z,68.69
2018-12-04T11:08:27.258Z,68.90
2018-12-04T11:10:55.068Z,67.17
2018-12-04T11:13:22.852Z,67.51
2018-12-04T11:15:50.696Z,67.62
2018-12-04T11:18:18.529Z,66.91
2018-12-04T11:20:46.259Z,66.85
2018-12-04T11:23:14.022Z,65.82
2018-12-04T11:25:41.799Z,64.32
2018-12-04T11:28:09.548Z,61.37
2018-12-04T11:30:37.374Z,60.71
2018-12-04T11:33:05.313Z,61.02
2018-12-04T11:35:33.126Z,61.08
2018-12-04T11:38:01.102Z,61.67
2018-12-04T11:40:29.004Z,60.45
2018-12-04T11:42:56.781Z,59.16
2018-12-04T11:45:24.520Z,58.58
2018-12-04T11:47:52.327Z,58.21
2018-12-04T11:50:20.144Z,57.65
2018-12-04T11:52:48.142Z,56.76
2018-12-04T11:55:16.070Z,57.67
2018-12-04T11:57:43.873Z,56.96
2018-12-04T12:00:19.999Z,56.13
2018-12-04T12:02:47.756Z,56.36
2018-12-04T12:05:15.643Z,56.04
2018-12-04T12:07:43.436Z,56.29
2018-12-04T12:10:11.201Z,56.20
2018-12-04T12:12:39.096Z,56.82
2018-12-04T12:15:07.006Z,56.46
2018-12-04T12:17:34.773Z,56.27
2018-12-04T12:20:03.167Z,55.74
2018-12-04T12:22:30.956Z,55.63
2018-12-04T12:25:04.348Z,55.83
2018-12-04T12:27:32.116Z,55.74
2018-12-04T12:30:00.064Z,54.81
2018-12-04T12:32:28.972Z,55.71
2018-12-04T12:34:56.699Z,55.29
2018-12-04T12:37:24.624Z,56.55
2018-12-04T12:39:52.398Z,57.64
2018-12-04T12:42:20.419Z,58.75
2018-12-04T12:44:48.262Z,60.22
2018-12-04T12:47:16.096Z,60.27
2018-12-04T12:49:43.861Z,60.38
2018-12-04T12:52:11.819Z,59.77
2018-12-04T12:54:41.609Z,59.85
2018-12-04T12:57:09.371Z,60.48
2018-12-04T12:59:37.165Z,60.61
2018-12-04T13:02:04.920Z,60.91
2018-12-04T13:04:34.055Z,61.59
2018-12-04T13:07:01.834Z,61.39
2018-12-04T13:09:30.181Z,61.67
2018-12-04T13:11:57.996Z,61.89
2018-12-04T13:14:25.752Z,62.10
2018-12-04T13:16:53.513Z,62.06
2018-12-04T13:19:21.411Z,62.18
2018-12-04T13:21:49.230Z,62.07
2018-12-04T13:24:16.977Z,61.54
2018-12-04T13:26:44.820Z,61.23
2018-12-04T13:29:12.606Z,61.46
2018-12-04T13:31:40.402Z,61.24
2018-12-04T13:34:08.151Z,61.26
2018-12-04T13:36:35.937Z,61.21
2018-12-04T13:39:06.896Z,60.74
2018-12-04T13:41:35.199Z,60.60
2018-12-04T13:44:03.078Z,60.43
2018-12-04T13:46:30.863Z,59.94
2018-12-04T13:48:58.611Z,60.09
2018-12-04T13:51:26.390Z,59.90
2018-12-04T13:53:54.168Z,59.92
2018-12-04T13:56:21.931Z,59.44
2018-12-04T13:58:49.698Z,59.47
2018-12-04T14:01:17.500Z,59.32
2018-12-04T14:03:45.205Z,59.16
2018-12-04T14:06:12.923Z,59.83
2018-12-04T14:08:41.411Z,59.76
2018-12-04T14:11:09.137Z,59.62
2018-12-04T14:13:37.048Z,59.96
2018-12-04T14:16:04.891Z,59.76
2018-12-04T14:18:32.651Z,60.24
2018-12-04T14:21:00.405Z,60.12
2018-12-04T14:23:28.278Z,59.88
2018-12-04T14:25:56.039Z,59.70
2018-12-04T14:28:23.853Z,59.46
2018-12-04T14:30:51.591Z,59.36
2018-12-04T14:33:19.441Z,59.52
2018-12-04T14:35:47.144Z,59.78
2018-12-04T14:38:14.898Z,59.89
2018-12-04T14:40:42.720Z,59.99
2018-12-04T14:43:10.579Z,60.34
2018-12-04T14:45:38.371Z,60.80
2018-12-04T14:48:06.140Z,60.71
2018-12-04T14:50:34.307Z,60.82
2018-12-04T14:53:02.068Z,61.53
2018-12-04T14:55:30.195Z,62.41
2018-12-04T14:57:57.979Z,62.46
2018-12-04T15:00:25.961Z,62.41
2018-12-04T15:02:53.739Z,62.65
2018-12-04T15:05:21.577Z,63.13
2018-12-04T15:07:49.416Z,63.43
2018-12-04T15:10:17.241Z,63.57
2018-12-04T15:12:45.087Z,63.47
2018-12-04T15:15:12.863Z,63.77
2018-12-04T15:17:40.632Z,63.46
2018-12-04T15:20:08.792Z,63.57
2018-12-04T15:22:36.694Z,63.74
2018-12-04T15:25:04.851Z,63.98
2018-12-04T15:27:32.733Z,64.03
2018-12-04T15:30:00.511Z,64.04
2018-12-04T15:32:28.359Z,64.01
2018-12-04T15:34:56.233Z,63.81
2018-12-04T15:37:24.182Z,63.69
2018-12-04T15:39:52.786Z,63.81
2018-12-04T15:42:20.758Z,63.69
2018-12-04T15:44:48.526Z,64.35
2018-12-04T15:47:16.297Z,64.50
2018-12-04T15:49:44.114Z,64.28
2018-12-04T15:52:11.883Z,64.35
2018-12-04T15:54:39.749Z,64.51
2018-12-04T15:57:07.587Z,64.65
2018-12-04T15:59:35.556Z,65.01
2018-12-04T16:02:03.456Z,65.24
2018-12-04T16:04:31.263Z,65.45
2018-12-04T16:06:59.029Z,65.63
2018-12-04T16:09:26.799Z,65.61
2018-12-04T16:11:54.530Z,65.91
2018-12-04T16:14:22.272Z,65.85
2018-12-04T16:16:50.031Z,66.22
2018-12-04T16:19:17.797Z,66.18
2018-12-04T16:21:45.524Z,66.47
2018-12-04T16:24:13.261Z,66.51
2018-12-04T16:26:41.911Z,66.28
2018-12-04T16:29:09.656Z,66.51
2018-12-04T16:31:37.416Z,66.42
2018-12-04T16:34:05.251Z,66.55
2018-12-04T16:36:32.977Z,66.61
2018-12-04T16:39:00.716Z,66.79
2018-12-04T16:41:28.463Z,66.51
2018-12-04T16:43:56.216Z,66.46
2018-12-04T16:46:23.977Z,66.35
2018-12-04T16:48:51.744Z,66.24
2018-12-04T16:51:19.515Z,66.27
2018-12-04T16:53:47.278Z,65.87
2018-12-04T16:56:15.018Z,65.81
2018-12-04T16:58:42.942Z,65.96
2018-12-04T17:01:10.765Z,66.13
2018-12-04T17:03:38.757Z,66.57
2018-12-04T17:06:06.546Z,67.18
2018-12-04T17:08:34.336Z,67.30
2018-12-04T17:11:02.068Z,68.15
2018-12-04T17:13:29.800Z,68.51
2018-12-04T17:15:57.838Z,68.20
2018-12-04T17:18:25.580Z,67.73
2018-12-04T17:20:53.341Z,67.62
2018-12-04T17:23:21.104Z,68.08
2018-12-04T17:25:48.940Z,68.36
2018-12-04T17:28:16.746Z,68.35
2018-12-04T17:30:44.500Z,70.35
2018-12-04T17:33:12.240Z,69.76
2018-12-04T17:35:40.064Z,69.79
2018-12-04T17:38:07.854Z,69.76
2018-12-04T17:40:35.624Z,69.90
2018-12-04T17:43:03.429Z,70.37
2018-12-04T17:45:31.159Z,70.68
2018-12-04T17:47:58.951Z,70.57
2018-12-04T17:50:26.751Z,70.02
2018-12-04T17:52:54.575Z,69.91
2018-12-04T17:55:22.480Z,69.80
2018-12-04T17:57:50.217Z,69.75
2018-12-04T18:00:18.150Z,69.96
2018-12-04T18:02:45.909Z,69.97
2018-12-04T18:05:13.669Z,69.52
2018-12-04T18:07:41.454Z,69.68
2018-12-04T18:10:09.259Z,69.71
2018-12-04T18:12:37.034Z,69.35
2018-12-04T18:15:05.945Z,68.73
2018-12-04T18:17:33.667Z,68.60
2018-12-04T18:20:01.461Z,68.73
2018-12-04T18:22:29.248Z,68.78
2018-12-04T18:24:57.014Z,68.43
2018-12-04T18:27:24.820Z,68.26
2018-12-04T18:29:52.571Z,68.00
2018-12-04T18:32:20.342Z,68.18
2018-12-04T18:34:48.133Z,68.04
2018-12-04T18:37:16.030Z,68.36
2018-12-04T18:39:44.021Z,68.89
2018-12-04T18:42:11.763Z,68.78
2018-12-04T18:44:39.518Z,68.76
2018-12-04T18:47:07.262Z,68.45
2018-12-04T18:49:35.240Z,68.19
2018-12-04T18:52:03.007Z,68.72
2018-12-04T18:54:30.792Z,68.48
2018-12-04T18:56:58.655Z,68.38
2018-12-04T18:59:26.385Z,69.08
2018-12-04T19:01:54.151Z,69.48
2018-12-04T19:04:21.926Z,70.86
2018-12-04T19:06:49.697Z,69.98
2018-12-04T19:09:17.412Z,70.02
2018-12-04T19:11:45.197Z,69.66
2018-12-04T19:14:13.088Z,69.38
2018-12-04T19:16:40.865Z,69.67
2018-12-04T19:19:08.760Z,69.44
2018-12-04T19:21:36.498Z,69.36
2018-12-04T19:24:04.281Z,69.40
2018-12-04T19:26:32.212Z,70.14
2018-12-04T19:29:00.033Z,70.66
2018-12-04T19:31:27.798Z,70.26
2018-12-04T19:33:55.649Z,70.43
2018-12-04T19:36:23.455Z,71.07
2018-12-04T19:38:51.226Z,70.53
2018-12-04T19:41:19.053Z,70.60
2018-12-04T19:43:46.785Z,70.32
2018-12-04T19:46:14.534Z,70.02
2018-12-04T19:48:42.317Z,69.81
2018-12-04T19:51:10.081Z,69.83
2018-12-04T19:53:37.862Z,69.52
2018-12-04T19:56:05.825Z,69.88
2018-12-04T19:58:33.782Z,70.73
2018-12-04T20:01:01.514Z,72.31
2018-12-04T20:03:29.258Z,73.33
2018-12-04T20:05:57.229Z,73.82
2018-12-04T20:08:29.661Z,74.15
2018-12-04T20:10:57.404Z,73.30
2018-12-04T20:13:25.290Z,73.22
2018-12-04T20:15:53.951Z,73.32
2018-12-04T20:18:21.992Z,73.39
2018-12-04T20:20:49.738Z,72.84
2018-12-04T20:23:17.460Z,72.75
2018-12-04T20:25:45.325Z,72.97
2018-12-04T20:28:13.032Z,72.76
2018-12-04T20:30:40.856Z,72.53
2018-12-04T20:33:08.639Z,72.44
2018-12-04T20:35:36.447Z,72.42
2018-12-04T20:38:04.232Z,72.32
2018-12-04T20:40:32.058Z,72.53
2018-12-04T20:42:59.871Z,72.25
2018-12-04T20:45:27.556Z,72.08
2018-12-04T20:47:55.426Z,71.67
2018-12-04T20:50:23.314Z,71.44
2018-12-04T20:52:51.082Z,71.35
2018-12-04T20:55:19.158Z,71.24
2018-12-04T20:57:46.962Z,70.97
2018-12-04T21:00:14.799Z,71.05
2018-12-04T21:02:42.542Z,71.61
2018-12-04T21:05:10.344Z,71.49
2018-12-04T21:07:38.090Z,71.67
2018-12-04T21:10:06.591Z,71.96
2018-12-04T21:12:34.404Z,71.62
2018-12-04T21:15:02.167Z,71.98
2018-12-04T21:17:29.936Z,72.04
2018-12-04T21:19:57.787Z,72.10
2018-12-04T21:22:25.477Z,72.41
2018-12-04T21:24:53.233Z,73.19
2018-12-04T21:27:26.728Z,72.97
2018-12-04T21:29:59.951Z,72.91
2018-12-04T21:32:33.157Z,72.94
2018-12-04T21:36:04.938Z,73.02
2018-12-04T21:38:38.289Z,72.78
2018-12-04T21:41:13.597Z,72.66
2018-12-04T21:43:47.044Z,72.43
2018-12-04T21:46:20.425Z,72.45
2018-12-04T21:48:48.309Z,72.02
2018-12-04T21:51:16.039Z,71.81
2018-12-04T21:53:43.809Z,71.81
2018-12-04T21:56:11.549Z,71.84
2018-12-04T21:58:39.348Z,71.68
2018-12-04T22:01:07.050Z,71.80
2018-12-04T22:03:34.879Z,71.54
2018-12-04T22:06:02.612Z,71.75
2018-12-04T22:08:30.344Z,71.67
2018-12-04T22:10:58.105Z,71.82
2018-12-04T22:13:25.895Z,71.58
2018-12-04T22:15:53.684Z,71.19
2018-12-04T22:18:21.454Z,71.23
2018-12-04T22:20:49.190Z,70.89
2018-12-04T22:23:16.947Z,70.63
2018-12-04T22:25:44.694Z,70.86
2018-12-04T22:28:12.428Z,70.83
2018-12-04T22:30:40.134Z,70.51
2018-12-04T22:33:07.949Z,70.48
2018-12-04T22:35:35.718Z,70.64
2018-12-04T22:38:03.493Z,70.45
2018-12-04T22:40:31.389Z,70.94
2018-12-04T22:42:59.148Z,71.05
2018-12-04T22:45:27.040Z,70.66
2018-12-04T22:47:55.260Z,70.72
2018-12-04T22:50:23.013Z,70.59
2018-12-04T22:52:50.823Z,70.39
2018-12-04T22:55:18.612Z,70.34
2018-12-04T22:57:46.402Z,70.36
2018-12-04T23:00:35.505Z,70.06
2018-12-04T23:03:03.377Z,69.93
2018-12-04T23:05:31.171Z,70.12
2018-12-04T23:07:58.901Z,69.94
2018-12-04T23:10:26.665Z,69.85
2018-12-04T23:12:54.421Z,69.68
2018-12-04T23:15:22.152Z,69.88
2018-12-04T23:17:50.140Z,69.81
2018-12-04T23:20:17.873Z,69.63
2018-12-04T23:22:45.621Z,69.76
2018-12-04T23:25:13.402Z,69.90
2018-12-04T23:27:41.144Z,70.37
2018-12-04T23:30:09.029Z,69.84
2018-12-04T23:32:36.749Z,69.95
2018-12-04T23:35:05.049Z,70.09
2018-12-04T23:37:32.789Z,70.14
2018-12-04T23:40:00.545Z,69.70
2018-12-04T23:42:28.267Z,69.86
2018-12-04T23:44:56.033Z,70.43
2018-12-04T23:47:23.808Z,70.49
2018-12-04T23:49:51.560Z,70.48
2018-12-04T23:52:19.388Z,70.53
2018-12-04T23:54:47.130Z,70.32
2018-12-04T23:57:14.914Z,70.33
2018-12-04T23:59:42.730Z,70.26
